Boechout, Belgium
Current Conditions -  °F | °C
As of 12:50 PM on Friday 19 Dec 2014 (Local Time) from EBAW Reporting Station
Light Rain Light Rain  
Wind Chill: 43°   Ceiling: 2000
Heat Index: 48°   Visibility: 6mi
Dew Point: 45°   Wind: 12mph
Humidity: 87%   Direction: 310°NW
Pressure: 29.91"   Gusts: NA
Location:  51.16°N, 4.49°E
Report Text: EBAW 191150Z 31010KT 9999 -RA FEW011 SCT016 BKN020 09/07 Q1013 NOSIG
Loading
Personal Weather Stations






























Interactive Weather Map New forecast layout! Learn more

10-Day Weather Forecast

Advertisements
Track Severe Weather on mobile